Airfield :
LOGIN :

Register | Disclaimer

   EN    FR    IT 

 










Legend :    VFR   Marginal VFR   IFR   Intensive IFR   Very Intensive IFR
Visi :
Ceiling :
>= 8 km
>= 3000ft
5 to 8 km
1000 to 3000 ft
1500m to 5 km
500 to 1000 ft
800 to 1500m
200 to 500 ft
< 800m
< 200 ft
Symbols :   Thunderstorms  Fog  Heavy snow  Heavy precipitations  Wind > 20 kt
SIGMETs :     Misc.  Thunderstorms  Icing  Turbulence  Mountain Waves  Volcanic Ashes







- Airport Elevation : 49 ft
- IATA code : GLZ


EHGR - Gilze-Rijen Airbase

CURRENT METAR :
  • 270313Z AUTO 28002KT 4300 BR NCD M03/M04 Q1016 GRN

EXPIRED METARs :
  • 270259Z AUTO VRB02KT 1700 BR NCD M01/M02 Q1016 YLO
  • 270255Z AUTO VRB02KT 9999 NCD M01/M01 Q1016 BLU
  • 270236Z AUTO 27002KT 8000 BR NCD M01/M01 Q1016 BLU
  • 270230Z AUTO 26002KT 5000 BR NCD M01/M01 Q1016 WHT
  • 270225Z AUTO 27002KT 9999 NCD M01/M02 Q1016 BLU
  • 270211Z AUTO 28003KT 5000 BR NCD M01/M01 Q1016 WHT
  • 270200Z AUTO VRB02KT 1600 BR NCD M01/M01 Q1016 YLO
  • 270155Z AUTO VRB02KT 9999 NCD M00/M01 Q1016 BLU
  • 270141Z AUTO 25002KT 9999 NCD M00/M01 Q1016 BLU
  • 270129Z AUTO VRB01KT 5000 BR NCD M01/M02 Q1016 WHT
  • 270125Z AUTO 27002KT 9999 NCD M01/M02 Q1016 BLU
  • 270055Z AUTO 25001KT 9999 NCD M00/M01 Q1016 BLU
  • 270025Z AUTO 29003KT 9999 NCD 01/M01 Q1016 BLU

TAF TAF EHGR
Valid from the 26 at 17:00 until the 27 at 05:00 UTC


261614Z 2617/2705 02014KT 9999 SCT040
TEMPO 2617/2620 SCT025CB
BECMG 2619/2622 33008KT
No reported NOTAMs for that airfield.



MET'MAP, your aeronautical weather chart ! - Copyright ORBIFLY December 2007 - Disclaimer

ORBIFLY MET'MAP TEAM :

Programming & Development : Alexandra Zaïnal
Concept & Development : Baudouin d'Aumeries
Co-Development & Prog : Marc-Olivier Méhu
Technical & hardware support : Manuel Goepfert

Contact : metmap@orbifly.com




SOURCES & CREDITS :

   NOAA